createdAt,value
2023-01-31T00:04:18.227Z,3.92
2023-01-31T00:10:20.096Z,3.72
2023-01-31T00:16:23.278Z,3.55
2023-01-31T00:22:25.131Z,4.10
2023-01-31T00:28:26.880Z,3.50
2023-01-31T00:34:28.769Z,4.15
2023-01-31T00:40:30.577Z,3.28
2023-01-31T00:46:32.414Z,4.00
2023-01-31T00:52:35.174Z,3.80
2023-01-31T00:58:39.558Z,3.60
2023-01-31T01:04:41.758Z,2.97
2023-01-31T01:10:43.582Z,2.95
2023-01-31T01:16:45.513Z,2.42
2023-01-31T01:22:47.593Z,2.88
2023-01-31T01:28:50.481Z,3.05
2023-01-31T01:34:52.296Z,3.08
2023-01-31T01:40:54.069Z,3.85
2023-01-31T01:46:57.150Z,3.35
2023-01-31T01:53:05.310Z,2.72
2023-01-31T01:59:16.705Z,3.55
2023-01-31T02:05:24.193Z,2.92
2023-01-31T02:11:29.775Z,3.28
2023-01-31T02:17:32.928Z,3.33
2023-01-31T02:23:53.436Z,2.90
2023-01-31T02:30:12.092Z,2.88
2023-01-31T02:36:23.643Z,3.22
2023-01-31T02:42:58.539Z,3.10
2023-01-31T02:49:12.278Z,2.85
2023-01-31T02:55:57.818Z,2.92
2023-01-31T03:02:03.261Z,2.50
2023-01-31T03:08:06.568Z,2.40
2023-01-31T03:14:24.621Z,3.17
2023-01-31T03:26:40.571Z,3.42
2023-01-31T03:33:06.353Z,3.40
2023-01-31T03:39:32.728Z,2.72
2023-01-31T03:45:57.887Z,3.30
2023-01-31T03:52:06.385Z,4.15
2023-01-31T03:58:10.843Z,2.85
2023-01-31T04:04:42.635Z,3.05
2023-01-31T04:10:45.047Z,2.85
2023-01-31T04:16:46.850Z,2.55
2023-01-31T04:22:48.713Z,2.60
2023-01-31T04:28:52.815Z,2.20
2023-01-31T04:34:54.864Z,3.13
2023-01-31T04:40:56.765Z,2.53
2023-01-31T04:46:58.534Z,2.78
2023-01-31T04:53:00.438Z,2.25
2023-01-31T04:59:02.388Z,2.90
2023-01-31T05:05:05.807Z,3.17
2023-01-31T05:11:08.685Z,2.92
2023-01-31T05:17:10.895Z,3.75
2023-01-31T05:23:13.455Z,3.33
2023-01-31T05:29:15.360Z,4.50
2023-01-31T05:35:17.546Z,6.18
2023-01-31T05:41:19.415Z,3.92
2023-01-31T05:47:23.507Z,6.50
2023-01-31T05:53:25.267Z,6.07
2023-01-31T05:59:29.998Z,4.47
2023-01-31T06:05:32.061Z,3.65
2023-01-31T06:11:33.973Z,4.70
2023-01-31T06:17:36.418Z,3.83
2023-01-31T06:23:38.379Z,4.25
2023-01-31T06:29:40.235Z,4.60
2023-01-31T06:35:42.398Z,4.30
2023-01-31T06:41:44.266Z,4.63
2023-01-31T06:47:46.176Z,4.82
2023-01-31T06:53:47.963Z,4.75
2023-01-31T06:59:49.706Z,4.95
2023-01-31T07:05:51.519Z,5.65
2023-01-31T07:11:53.604Z,4.07
2023-01-31T07:17:59.576Z,4.68
2023-01-31T07:24:01.333Z,4.60
2023-01-31T07:30:03.279Z,4.15
2023-01-31T07:36:06.891Z,5.40
2023-01-31T07:42:08.730Z,4.13
2023-01-31T07:48:12.176Z,3.00
2023-01-31T07:54:14.063Z,3.30
2023-01-31T08:00:35.119Z,3.05
2023-01-31T08:06:38.407Z,2.97
2023-01-31T08:12:40.173Z,2.83
2023-01-31T08:18:42.287Z,4.03
2023-01-31T08:24:44.421Z,3.20
2023-01-31T08:30:52.845Z,3.38
2023-01-31T08:37:01.309Z,3.45
2023-01-31T08:43:03.129Z,3.10
2023-01-31T08:49:07.162Z,3.33
2023-01-31T08:55:13.621Z,3.50
2023-01-31T09:01:18.208Z,3.72
2023-01-31T09:07:21.740Z,5.45
2023-01-31T09:13:24.476Z,4.00
2023-01-31T09:19:26.422Z,4.22
2023-01-31T09:25:43.733Z,5.22
2023-01-31T09:31:52.014Z,5.18
2023-01-31T09:37:54.142Z,5.30
2023-01-31T09:44:07.096Z,5.28
2023-01-31T09:50:22.633Z,5.80
2023-01-31T09:56:30.844Z,5.47
2023-01-31T10:02:46.106Z,5.65
2023-01-31T10:08:54.773Z,5.85
2023-01-31T10:15:01.477Z,5.22
2023-01-31T10:21:12.497Z,6.25
2023-01-31T10:27:44.753Z,5.60
2023-01-31T10:34:17.489Z,6.47
2023-01-31T10:40:40.171Z,6.72
2023-01-31T10:46:42.061Z,5.97
2023-01-31T10:53:01.189Z,6.90
2023-01-31T10:59:07.630Z,6.38
2023-01-31T11:05:20.017Z,6.45
2023-01-31T11:11:24.790Z,7.18
2023-01-31T11:17:34.189Z,6.28
2023-01-31T11:23:37.187Z,7.65
2023-01-31T11:29:40.575Z,7.70
2023-01-31T11:35:51.975Z,8.23
2023-01-31T11:41:54.180Z,7.82
2023-01-31T11:47:58.606Z,7.18
2023-01-31T11:54:03.884Z,6.68
2023-01-31T12:00:20.137Z,7.10
2023-01-31T12:06:39.182Z,5.47
2023-01-31T12:12:46.108Z,5.32
2023-01-31T12:19:15.592Z,7.53
2023-01-31T12:25:28.311Z,7.60
2023-01-31T12:31:40.745Z,7.72
2023-01-31T12:38:01.253Z,7.07
2023-01-31T12:44:41.027Z,7.90
2023-01-31T12:51:03.082Z,8.90
2023-01-31T12:57:21.405Z,9.50
2023-01-31T13:03:39.132Z,9.50
2023-01-31T13:09:41.238Z,9.05
2023-01-31T13:16:36.970Z,9.52
2023-01-31T13:22:41.543Z,10.25
2023-01-31T13:29:04.760Z,8.68
2023-01-31T13:35:23.518Z,9.77
2023-01-31T13:41:31.664Z,9.77
2023-01-31T13:47:48.626Z,9.30
2023-01-31T13:54:04.335Z,9.17
2023-01-31T14:00:41.906Z,6.88
2023-01-31T14:06:52.903Z,5.37
2023-01-31T14:13:24.645Z,3.92
2023-01-31T14:19:30.796Z,3.45
2023-01-31T14:25:41.856Z,4.47
2023-01-31T14:31:45.329Z,3.60
2023-01-31T14:38:15.387Z,3.40
2023-01-31T14:44:32.196Z,3.50
2023-01-31T14:50:43.634Z,4.53
2023-01-31T14:56:53.688Z,4.85
2023-01-31T15:03:01.483Z,4.40
2023-01-31T15:09:15.881Z,4.10
2023-01-31T15:15:41.812Z,4.55
2023-01-31T15:21:51.217Z,4.00
2023-01-31T15:27:56.764Z,4.05
2023-01-31T15:34:05.410Z,4.13
2023-01-31T15:40:21.321Z,4.78
2023-01-31T15:53:15.179Z,6.45
2023-01-31T15:59:18.937Z,6.22
2023-01-31T16:05:22.357Z,5.43
2023-01-31T16:11:26.207Z,5.80
2023-01-31T16:17:29.077Z,6.30
2023-01-31T16:23:36.089Z,7.18
2023-01-31T16:29:42.565Z,7.10
2023-01-31T16:35:44.397Z,7.78
2023-01-31T16:41:51.809Z,8.63
2023-01-31T16:48:28.463Z,9.32
2023-01-31T16:54:45.132Z,8.85
2023-01-31T17:00:51.278Z,8.55
2023-01-31T17:07:04.838Z,8.10
2023-01-31T17:13:31.021Z,8.80
2023-01-31T17:19:32.761Z,8.65
2023-01-31T17:25:36.492Z,8.55
2023-01-31T17:31:38.307Z,7.50
2023-01-31T17:37:40.057Z,6.47
2023-01-31T17:43:42.563Z,6.80
2023-01-31T17:49:45.275Z,6.57
2023-01-31T17:55:47.460Z,6.65
2023-01-31T18:01:49.257Z,7.05
2023-01-31T18:07:51.455Z,6.75
2023-01-31T18:13:53.229Z,6.95
2023-01-31T18:19:57.798Z,6.63
2023-01-31T18:25:59.492Z,4.70
2023-01-31T18:32:03.311Z,4.15
2023-01-31T18:38:06.778Z,3.28
2023-01-31T18:44:08.827Z,2.80
2023-01-31T18:50:11.112Z,2.38
2023-01-31T18:56:18.499Z,2.83
2023-01-31T19:02:20.317Z,4.80
2023-01-31T19:08:22.028Z,6.07
2023-01-31T19:14:23.819Z,7.35
2023-01-31T19:20:25.671Z,7.68
2023-01-31T19:26:28.583Z,7.38
2023-01-31T19:32:31.227Z,7.20
2023-01-31T19:38:33.000Z,7.70
2023-01-31T19:44:34.749Z,5.88
2023-01-31T19:50:36.519Z,5.35
2023-01-31T19:56:38.331Z,5.28
2023-01-31T20:02:44.104Z,5.22
2023-01-31T20:08:50.451Z,5.70
2023-01-31T20:14:52.174Z,5.00
2023-01-31T20:20:54.138Z,4.25
2023-01-31T20:26:56.080Z,4.20
2023-01-31T20:32:57.807Z,5.32
2023-01-31T20:38:59.559Z,4.70
2023-01-31T20:45:01.280Z,4.47
2023-01-31T20:51:03.321Z,4.00
2023-01-31T20:57:05.045Z,4.18
2023-01-31T21:03:06.875Z,5.10
2023-01-31T21:09:09.606Z,4.78
2023-01-31T21:15:11.578Z,4.20
2023-01-31T21:21:22.669Z,4.38
2023-01-31T21:27:24.599Z,3.78
2023-01-31T21:33:28.053Z,3.50
2023-01-31T21:39:29.989Z,3.42
2023-01-31T21:45:40.488Z,3.40
2023-01-31T21:51:42.345Z,3.35
2023-01-31T21:57:44.853Z,3.20
2023-01-31T22:03:49.316Z,3.50
2023-01-31T22:09:51.029Z,3.70
2023-01-31T22:15:52.901Z,3.63
2023-01-31T22:21:54.648Z,3.60
2023-01-31T22:27:57.871Z,4.05
2023-01-31T22:34:00.355Z,3.78
2023-01-31T22:40:02.239Z,3.95
2023-01-31T22:46:05.051Z,3.85
2023-01-31T22:52:06.844Z,4.63
2023-01-31T22:58:09.603Z,4.78
2023-01-31T23:04:11.550Z,4.03
2023-01-31T23:10:13.353Z,4.40
2023-01-31T23:16:18.573Z,4.25
2023-01-31T23:22:20.348Z,4.07
2023-01-31T23:28:22.078Z,4.72
2023-01-31T23:34:23.905Z,4.47
2023-01-31T23:40:25.685Z,4.68
2023-01-31T23:46:27.489Z,4.05
2023-01-31T23:52:29.252Z,4.00
2023-01-31T23:58:30.969Z,4.40
